sensor_id;sensor_type;location;lat;lon;timestamp;pressure;altitude;pressure_sealevel;temperature;humidity
84890;BME280;75153;52.222;5.160;2024-01-16T00:00:34;100863.00;;;0.83;84.60
84890;BME280;75153;52.222;5.160;2024-01-16T00:03:00;100884.94;;;0.87;84.22
84890;BME280;75153;52.222;5.160;2024-01-16T00:05:25;100902.72;;;0.97;83.42
84890;BME280;75153;52.222;5.160;2024-01-16T00:07:51;100895.72;;;1.04;83.85
84890;BME280;75153;52.222;5.160;2024-01-16T00:10:16;100902.50;;;0.99;84.03
84890;BME280;75153;52.222;5.160;2024-01-16T00:12:41;100889.72;;;1.04;83.98
84890;BME280;75153;52.222;5.160;2024-01-16T00:15:09;100876.34;;;1.07;83.58
84890;BME280;75153;52.222;5.160;2024-01-16T00:17:35;100860.00;;;1.00;84.62
84890;BME280;75153;52.222;5.160;2024-01-16T00:20:00;100872.53;;;1.09;83.29
84890;BME280;75153;52.222;5.160;2024-01-16T00:22:29;100869.59;;;0.99;83.71
84890;BME280;75153;52.222;5.160;2024-01-16T00:24:55;100874.38;;;0.89;83.47
84890;BME280;75153;52.222;5.160;2024-01-16T00:27:20;100867.00;;;0.79;84.17
84890;BME280;75153;52.222;5.160;2024-01-16T00:29:46;100880.16;;;0.84;83.91
84890;BME280;75153;52.222;5.160;2024-01-16T00:32:11;100875.59;;;0.80;84.28
84890;BME280;75153;52.222;5.160;2024-01-16T00:34:41;100868.38;;;0.82;84.10
84890;BME280;75153;52.222;5.160;2024-01-16T00:37:07;100870.56;;;0.78;83.89
84890;BME280;75153;52.222;5.160;2024-01-16T00:39:32;100871.78;;;0.76;84.11
84890;BME280;75153;52.222;5.160;2024-01-16T00:41:58;100872.00;;;0.74;84.07
84890;BME280;75153;52.222;5.160;2024-01-16T00:44:23;100868.00;;;0.72;84.15
84890;BME280;75153;52.222;5.160;2024-01-16T00:46:49;100876.19;;;0.69;83.96
84890;BME280;75153;52.222;5.160;2024-01-16T00:49:14;100869.19;;;0.69;84.34
84890;BME280;75153;52.222;5.160;2024-01-16T00:51:39;100878.56;;;0.70;84.16
84890;BME280;75153;52.222;5.160;2024-01-16T00:54:05;100878.16;;;0.73;83.94
84890;BME280;75153;52.222;5.160;2024-01-16T00:56:34;100886.94;;;0.72;83.81
84890;BME280;75153;52.222;5.160;2024-01-16T00:59:00;100882.56;;;0.73;83.87
84890;BME280;75153;52.222;5.160;2024-01-16T01:01:25;100887.75;;;0.73;84.07
84890;BME280;75153;52.222;5.160;2024-01-16T01:03:51;100886.16;;;0.72;84.13
84890;BME280;75153;52.222;5.160;2024-01-16T01:06:17;100892.16;;;0.72;83.33
84890;BME280;75153;52.222;5.160;2024-01-16T01:08:42;100887.75;;;0.73;83.95
84890;BME280;75153;52.222;5.160;2024-01-16T01:11:07;100895.75;;;0.71;83.21
84890;BME280;75153;52.222;5.160;2024-01-16T01:13:33;100891.13;;;0.73;83.41
84890;BME280;75153;52.222;5.160;2024-01-16T01:15:58;100899.13;;;0.72;83.17
84890;BME280;75153;52.222;5.160;2024-01-16T01:18:24;100897.72;;;0.69;83.09
84890;BME280;75153;52.222;5.160;2024-01-16T01:20:49;100900.31;;;0.69;83.14
84890;BME280;75153;52.222;5.160;2024-01-16T01:23:15;100896.72;;;0.70;83.41
84890;BME280;75153;52.222;5.160;2024-01-16T01:25:40;100897.16;;;0.74;83.54
84890;BME280;75153;52.222;5.160;2024-01-16T01:28:06;100901.72;;;0.78;83.18
84890;BME280;75153;52.222;5.160;2024-01-16T01:30:32;100906.31;;;0.83;83.34
84890;BME280;75153;52.222;5.160;2024-01-16T01:32:57;100915.13;;;0.88;83.29
84890;BME280;75153;52.222;5.160;2024-01-16T01:35:22;100934.47;;;0.93;83.28
84890;BME280;75153;52.222;5.160;2024-01-16T01:37:48;100939.25;;;0.96;83.54
84890;BME280;75153;52.222;5.160;2024-01-16T01:40:14;100939.66;;;0.86;84.55
84890;BME280;75153;52.222;5.160;2024-01-16T01:42:41;100941.25;;;0.87;84.99
84890;BME280;75153;52.222;5.160;2024-01-16T01:45:09;100932.66;;;0.93;84.95
84890;BME280;75153;52.222;5.160;2024-01-16T01:47:35;100932.66;;;0.73;86.37
84890;BME280;75153;52.222;5.160;2024-01-16T01:50:01;100936.88;;;0.81;86.65
84890;BME280;75153;52.222;5.160;2024-01-16T01:52:30;100934.47;;;0.66;87.44
84890;BME280;75153;52.222;5.160;2024-01-16T01:54:55;100923.28;;;0.72;87.51
84890;BME280;75153;52.222;5.160;2024-01-16T01:57:21;100917.50;;;0.77;87.87
84890;BME280;75153;52.222;5.160;2024-01-16T01:59:47;100904.13;;;0.86;87.33
84890;BME280;75153;52.222;5.160;2024-01-16T02:02:12;100913.31;;;0.82;87.68
84890;BME280;75153;52.222;5.160;2024-01-16T02:04:40;100910.31;;;0.92;86.39
84890;BME280;75153;52.222;5.160;2024-01-16T02:07:06;100910.53;;;0.77;87.15
84890;BME280;75153;52.222;5.160;2024-01-16T02:09:32;100913.91;;;0.84;86.72
84890;BME280;75153;52.222;5.160;2024-01-16T02:11:57;100904.53;;;0.83;86.83
84890;BME280;75153;52.222;5.160;2024-01-16T02:14:23;100910.72;;;0.82;86.84
84890;BME280;75153;52.222;5.160;2024-01-16T02:16:48;100914.50;;;0.86;86.93
84890;BME280;75153;52.222;5.160;2024-01-16T02:19:15;100917.72;;;0.88;87.24
84890;BME280;75153;52.222;5.160;2024-01-16T02:21:47;100915.09;;;0.95;86.41
84890;BME280;75153;52.222;5.160;2024-01-16T02:24:15;100913.31;;;0.96;87.27
84890;BME280;75153;52.222;5.160;2024-01-16T02:26:41;100906.72;;;0.86;87.85
84890;BME280;75153;52.222;5.160;2024-01-16T02:29:06;100911.09;;;0.93;87.58
84890;BME280;75153;52.222;5.160;2024-01-16T02:31:32;100902.72;;;0.77;88.32
84890;BME280;75153;52.222;5.160;2024-01-16T02:33:58;100897.13;;;0.87;87.70
84890;BME280;75153;52.222;5.160;2024-01-16T02:36:24;100897.13;;;0.87;88.27
84890;BME280;75153;52.222;5.160;2024-01-16T02:38:50;100894.94;;;0.90;87.52
84890;BME280;75153;52.222;5.160;2024-01-16T02:41:16;100894.56;;;0.94;87.81
84890;BME280;75153;52.222;5.160;2024-01-16T02:43:42;100898.50;;;0.96;87.42
84890;BME280;75153;52.222;5.160;2024-01-16T02:46:08;100895.91;;;0.96;87.43
84890;BME280;75153;52.222;5.160;2024-01-16T02:48:37;100906.09;;;1.04;86.73
84890;BME280;75153;52.222;5.160;2024-01-16T02:51:03;100913.72;;;1.06;86.90
84890;BME280;75153;52.222;5.160;2024-01-16T02:53:31;100912.50;;;1.08;86.79
84890;BME280;75153;52.222;5.160;2024-01-16T02:55:57;100918.09;;;1.12;86.97
84890;BME280;75153;52.222;5.160;2024-01-16T02:58:27;100910.72;;;1.09;87.26
84890;BME280;75153;52.222;5.160;2024-01-16T03:00:53;100911.72;;;1.08;87.12
84890;BME280;75153;52.222;5.160;2024-01-16T03:03:18;100908.91;;;1.09;86.68
84890;BME280;75153;52.222;5.160;2024-01-16T03:05:44;100907.31;;;1.15;86.97
84890;BME280;75153;52.222;5.160;2024-01-16T03:08:10;100902.91;;;1.09;86.92
84890;BME280;75153;52.222;5.160;2024-01-16T03:10:35;100903.13;;;1.01;87.41
84890;BME280;75153;52.222;5.160;2024-01-16T03:13:01;100902.91;;;1.09;87.49
84890;BME280;75153;52.222;5.160;2024-01-16T03:15:26;100903.53;;;1.11;86.94
84890;BME280;75153;52.222;5.160;2024-01-16T03:17:52;100905.91;;;1.06;87.48
84890;BME280;75153;52.222;5.160;2024-01-16T03:20:17;100896.53;;;1.05;87.58
84890;BME280;75153;52.222;5.160;2024-01-16T03:22:44;100897.72;;;1.09;87.85
84890;BME280;75153;52.222;5.160;2024-01-16T03:25:09;100894.13;;;1.10;87.48
84890;BME280;75153;52.222;5.160;2024-01-16T03:27:36;100894.94;;;1.10;87.74
84890;BME280;75153;52.222;5.160;2024-01-16T03:30:02;100904.28;;;1.18;86.69
84890;BME280;75153;52.222;5.160;2024-01-16T03:32:27;100908.09;;;1.22;86.42
84890;BME280;75153;52.222;5.160;2024-01-16T03:34:53;100900.53;;;1.14;86.54
84890;BME280;75153;52.222;5.160;2024-01-16T03:37:18;100900.13;;;1.17;86.16
84890;BME280;75153;52.222;5.160;2024-01-16T03:39:44;100906.91;;;1.18;85.95
84890;BME280;75153;52.222;5.160;2024-01-16T03:42:10;100904.91;;;1.14;86.23
84890;BME280;75153;52.222;5.160;2024-01-16T03:44:41;100902.50;;;1.19;86.07
84890;BME280;75153;52.222;5.160;2024-01-16T03:47:07;100897.53;;;1.10;86.43
84890;BME280;75153;52.222;5.160;2024-01-16T03:49:32;100898.91;;;1.06;86.69
84890;BME280;75153;52.222;5.160;2024-01-16T03:51:58;100895.91;;;1.09;86.53
84890;BME280;75153;52.222;5.160;2024-01-16T03:54:24;100893.53;;;1.15;86.16
84890;BME280;75153;52.222;5.160;2024-01-16T03:56:49;100893.75;;;1.00;86.08
84890;BME280;75153;52.222;5.160;2024-01-16T03:59:15;100896.53;;;0.98;86.18
84890;BME280;75153;52.222;5.160;2024-01-16T04:01:40;100894.94;;;1.04;86.05
84890;BME280;75153;52.222;5.160;2024-01-16T04:04:07;100895.50;;;1.12;85.43
84890;BME280;75153;52.222;5.160;2024-01-16T04:06:33;100897.72;;;1.09;85.21
84890;BME280;75153;52.222;5.160;2024-01-16T04:08:58;100908.91;;;1.03;85.39
84890;BME280;75153;52.222;5.160;2024-01-16T04:11:23;100903.53;;;1.11;85.58
84890;BME280;75153;52.222;5.160;2024-01-16T04:13:49;100905.13;;;0.92;86.31
84890;BME280;75153;52.222;5.160;2024-01-16T04:16:15;100904.91;;;1.00;86.10
84890;BME280;75153;52.222;5.160;2024-01-16T04:18:42;100907.72;;;0.65;87.23
84890;BME280;75153;52.222;5.160;2024-01-16T04:21:08;100904.53;;;0.77;87.56
84890;BME280;75153;52.222;5.160;2024-01-16T04:23:33;100896.34;;;0.86;87.29
84890;BME280;75153;52.222;5.160;2024-01-16T04:25:59;100890.94;;;0.81;87.36
84890;BME280;75153;52.222;5.160;2024-01-16T04:28:25;100887.75;;;0.86;86.92
84890;BME280;75153;52.222;5.160;2024-01-16T04:30:51;100890.34;;;0.86;86.87
84890;BME280;75153;52.222;5.160;2024-01-16T04:33:16;100887.75;;;0.93;87.15
84890;BME280;75153;52.222;5.160;2024-01-16T04:35:42;100882.16;;;0.96;86.44
84890;BME280;75153;52.222;5.160;2024-01-16T04:38:08;100877.38;;;0.99;86.61
84890;BME280;75153;52.222;5.160;2024-01-16T04:40:34;100884.53;;;1.04;86.71
84890;BME280;75153;52.222;5.160;2024-01-16T04:43:00;100877.16;;;1.01;86.65
84890;BME280;75153;52.222;5.160;2024-01-16T04:45:25;100874.75;;;1.06;86.08
84890;BME280;75153;52.222;5.160;2024-01-16T04:47:51;100874.78;;;0.99;86.44
84890;BME280;75153;52.222;5.160;2024-01-16T04:50:16;100870.94;;;1.02;85.84
84890;BME280;75153;52.222;5.160;2024-01-16T04:52:42;100870.34;;;0.93;86.47
84890;BME280;75153;52.222;5.160;2024-01-16T04:55:07;100874.16;;;0.90;85.98
84890;BME280;75153;52.222;5.160;2024-01-16T04:57:33;100873.19;;;0.92;86.63
84890;BME280;75153;52.222;5.160;2024-01-16T04:59:58;100874.78;;;0.86;86.52
84890;BME280;75153;52.222;5.160;2024-01-16T05:02:24;100875.56;;;0.86;86.77
84890;BME280;75153;52.222;5.160;2024-01-16T05:04:49;100869.59;;;0.86;86.58
84890;BME280;75153;52.222;5.160;2024-01-16T05:07:17;100859.41;;;0.78;86.57
84890;BME280;75153;52.222;5.160;2024-01-16T05:09:46;100850.59;;;0.79;86.71
84890;BME280;75153;52.222;5.160;2024-01-16T05:12:12;100853.63;;;0.82;86.07
84890;BME280;75153;52.222;5.160;2024-01-16T05:14:38;100849.81;;;0.78;85.83
84890;BME280;75153;52.222;5.160;2024-01-16T05:17:03;100842.03;;;0.78;86.23
84890;BME280;75153;52.222;5.160;2024-01-16T05:19:29;100838.25;;;0.74;86.38
84890;BME280;75153;52.222;5.160;2024-01-16T05:21:54;100832.25;;;0.74;86.12
84890;BME280;75153;52.222;5.160;2024-01-16T05:24:20;100832.84;;;0.69;86.77
84890;BME280;75153;52.222;5.160;2024-01-16T05:26:45;100835.44;;;0.69;86.10
84890;BME280;75153;52.222;5.160;2024-01-16T05:29:10;100829.84;;;0.72;85.93
84890;BME280;75153;52.222;5.160;2024-01-16T05:31:43;100829.66;;;0.67;86.41
84890;BME280;75153;52.222;5.160;2024-01-16T05:34:09;100825.84;;;0.76;85.79
84890;BME280;75153;52.222;5.160;2024-01-16T05:36:34;100820.28;;;0.73;86.36
84890;BME280;75153;52.222;5.160;2024-01-16T05:38:59;100828.47;;;0.70;86.12
84890;BME280;75153;52.222;5.160;2024-01-16T05:41:25;100825.88;;;0.63;86.94
84890;BME280;75153;52.222;5.160;2024-01-16T05:43:50;100831.25;;;0.61;87.00
84890;BME280;75153;52.222;5.160;2024-01-16T05:46:16;100835.06;;;0.65;86.91
84890;BME280;75153;52.222;5.160;2024-01-16T05:48:41;100831.06;;;0.63;87.51
84890;BME280;75153;52.222;5.160;2024-01-16T05:51:06;100834.06;;;0.60;87.72
84890;BME280;75153;52.222;5.160;2024-01-16T05:53:32;100822.25;;;0.71;87.43
84890;BME280;75153;52.222;5.160;2024-01-16T05:55:57;100826.88;;;0.55;88.13
84890;BME280;75153;52.222;5.160;2024-01-16T05:58:22;100822.47;;;0.56;88.73
84890;BME280;75153;52.222;5.160;2024-01-16T06:00:48;100827.84;;;0.67;88.20
84890;BME280;75153;52.222;5.160;2024-01-16T06:03:13;100838.44;;;0.73;88.22
84890;BME280;75153;52.222;5.160;2024-01-16T06:05:38;100835.03;;;0.72;87.95
84890;BME280;75153;52.222;5.160;2024-01-16T06:08:04;100844.22;;;0.81;87.81
84890;BME280;75153;52.222;5.160;2024-01-16T06:10:29;100844.41;;;0.73;88.45
84890;BME280;75153;52.222;5.160;2024-01-16T06:12:55;100842.22;;;0.70;88.51
84890;BME280;75153;52.222;5.160;2024-01-16T06:15:20;100832.84;;;0.69;89.01
84890;BME280;75153;52.222;5.160;2024-01-16T06:17:45;100836.44;;;0.61;89.38
84890;BME280;75153;52.222;5.160;2024-01-16T06:20:11;100833.84;;;0.61;89.95
84890;BME280;75153;52.222;5.160;2024-01-16T06:22:36;100834.47;;;0.57;89.82
84890;BME280;75153;52.222;5.160;2024-01-16T06:25:02;100831.06;;;0.63;90.14
84890;BME280;75153;52.222;5.160;2024-01-16T06:27:27;100832.84;;;0.69;89.39
84890;BME280;75153;52.222;5.160;2024-01-16T06:29:53;100832.84;;;0.76;89.17
84890;BME280;75153;52.222;5.160;2024-01-16T06:32:18;100827.06;;;0.67;89.14
84890;BME280;75153;52.222;5.160;2024-01-16T06:34:44;100826.25;;;0.73;89.12
84890;BME280;75153;52.222;5.160;2024-01-16T06:37:09;100819.50;;;0.65;89.09
84890;BME280;75153;52.222;5.160;2024-01-16T06:39:36;100821.88;;;0.74;88.72
84890;BME280;75153;52.222;5.160;2024-01-16T06:42:02;100824.25;;;0.62;89.12
84890;BME280;75153;52.222;5.160;2024-01-16T06:44:29;100819.88;;;0.69;89.45
84890;BME280;75153;52.222;5.160;2024-01-16T06:46:54;100826.44;;;0.85;88.66
84890;BME280;75153;52.222;5.160;2024-01-16T06:49:20;100830.25;;;0.82;88.41
84890;BME280;75153;52.222;5.160;2024-01-16T06:51:45;100836.63;;;0.93;87.70
84890;BME280;75153;52.222;5.160;2024-01-16T06:54:10;100825.84;;;0.76;88.13
84890;BME280;75153;52.222;5.160;2024-01-16T06:56:36;100828.25;;;0.78;88.70
84890;BME280;75153;52.222;5.160;2024-01-16T06:59:01;100830.66;;;0.73;88.90
84890;BME280;75153;52.222;5.160;2024-01-16T07:01:27;100833.22;;;0.93;88.11
84890;BME280;75153;52.222;5.160;2024-01-16T07:03:53;100835.81;;;0.93;88.06
84890;BME280;75153;52.222;5.160;2024-01-16T07:06:18;100830.63;;;0.93;88.19
84890;BME280;75153;52.222;5.160;2024-01-16T07:08:44;100837.81;;;0.97;88.24
84890;BME280;75153;52.222;5.160;2024-01-16T07:11:09;100836.22;;;0.96;87.72
84890;BME280;75153;52.222;5.160;2024-01-16T07:13:38;100835.81;;;1.06;87.09
84890;BME280;75153;52.222;5.160;2024-01-16T07:16:04;100834.22;;;0.98;87.52
84890;BME280;75153;52.222;5.160;2024-01-16T07:18:29;100842.22;;;0.97;87.68
84890;BME280;75153;52.222;5.160;2024-01-16T07:20:54;100839.44;;;0.92;87.48
84890;BME280;75153;52.222;5.160;2024-01-16T07:23:20;100837.81;;;0.90;88.30
84890;BME280;75153;52.222;5.160;2024-01-16T07:25:45;100846.81;;;0.81;87.95
84890;BME280;75153;52.222;5.160;2024-01-16T07:28:11;100843.63;;;0.99;88.03
84890;BME280;75153;52.222;5.160;2024-01-16T07:30:36;100847.41;;;0.97;87.22
84890;BME280;75153;52.222;5.160;2024-01-16T07:33:03;100845.78;;;0.96;87.63
84890;BME280;75153;52.222;5.160;2024-01-16T07:35:28;100854.59;;;0.95;87.11
84890;BME280;75153;52.222;5.160;2024-01-16T07:37:53;100845.78;;;0.96;87.63
84890;BME280;75153;52.222;5.160;2024-01-16T07:40:19;100851.97;;;1.01;87.36
84890;BME280;75153;52.222;5.160;2024-01-16T07:42:44;100848.19;;;1.04;87.26
84890;BME280;75153;52.222;5.160;2024-01-16T07:45:10;100848.00;;;1.05;87.06
84890;BME280;75153;52.222;5.160;2024-01-16T07:47:36;100850.19;;;1.08;86.82
84890;BME280;75153;52.222;5.160;2024-01-16T07:50:01;100854.97;;;1.11;86.42
84890;BME280;75153;52.222;5.160;2024-01-16T07:52:27;100853.75;;;1.07;86.94
84890;BME280;75153;52.222;5.160;2024-01-16T07:54:53;100863.97;;;1.09;87.32
84890;BME280;75153;52.222;5.160;2024-01-16T07:57:18;100853.78;;;1.14;86.58
84890;BME280;75153;52.222;5.160;2024-01-16T07:59:44;100852.56;;;1.10;86.90
84890;BME280;75153;52.222;5.160;2024-01-16T08:02:09;100853.75;;;1.07;86.77
84890;BME280;75153;52.222;5.160;2024-01-16T08:04:35;100848.56;;;1.07;86.81
84890;BME280;75153;52.222;5.160;2024-01-16T08:07:01;100858.78;;;1.09;87.01
84890;BME280;75153;52.222;5.160;2024-01-16T08:09:26;100860.34;;;1.10;86.44
84890;BME280;75153;52.222;5.160;2024-01-16T08:11:52;100846.16;;;1.12;86.40
84890;BME280;75153;52.222;5.160;2024-01-16T08:14:17;100849.56;;;1.13;86.28
84890;BME280;75153;52.222;5.160;2024-01-16T08:16:42;100847.97;;;1.12;86.57
84890;BME280;75153;52.222;5.160;2024-01-16T08:19:08;100852.97;;;1.14;86.07
84890;BME280;75153;52.222;5.160;2024-01-16T08:21:33;100858.16;;;1.07;86.15
84890;BME280;75153;52.222;5.160;2024-01-16T08:23:58;100845.38;;;1.12;85.60
84890;BME280;75153;52.222;5.160;2024-01-16T08:26:24;100849.00;;;1.11;85.78
84890;BME280;75153;52.222;5.160;2024-01-16T08:28:49;100848.19;;;1.04;85.80
84890;BME280;75153;52.222;5.160;2024-01-16T08:31:19;100852.59;;;1.03;86.07
84890;BME280;75153;52.222;5.160;2024-01-16T08:33:44;100848.59;;;1.01;85.73
84890;BME280;75153;52.222;5.160;2024-01-16T08:36:10;100847.59;;;1.02;85.61
84890;BME280;75153;52.222;5.160;2024-01-16T08:38:35;100852.19;;;1.00;85.38
84890;BME280;75153;52.222;5.160;2024-01-16T08:41:01;100845.41;;;0.92;85.56
84890;BME280;75153;52.222;5.160;2024-01-16T08:43:26;100845.59;;;0.97;85.20
84890;BME280;75153;52.222;5.160;2024-01-16T08:45:52;100845.19;;;1.00;85.19
84890;BME280;75153;52.222;5.160;2024-01-16T08:48:17;100845.59;;;0.97;84.97
84890;BME280;75153;52.222;5.160;2024-01-16T08:50:42;100847.41;;;0.97;85.30
84890;BME280;75153;52.222;5.160;2024-01-16T08:53:08;100846.78;;;1.01;84.66
84890;BME280;75153;52.222;5.160;2024-01-16T08:55:33;100849.19;;;1.09;84.68
84890;BME280;75153;52.222;5.160;2024-01-16T08:57:59;100848.78;;;1.06;84.37
84890;BME280;75153;52.222;5.160;2024-01-16T09:00:24;100849.59;;;1.06;84.38
84890;BME280;75153;52.222;5.160;2024-01-16T09:02:49;100850.78;;;1.10;84.10
84890;BME280;75153;52.222;5.160;2024-01-16T09:05:15;100847.38;;;1.10;83.83
84890;BME280;75153;52.222;5.160;2024-01-16T09:07:41;100837.97;;;1.16;83.96
84890;BME280;75153;52.222;5.160;2024-01-16T09:10:07;100842.75;;;1.19;83.69
84890;BME280;75153;52.222;5.160;2024-01-16T09:12:33;100843.16;;;1.22;83.83
84890;BME280;75153;52.222;5.160;2024-01-16T09:14:58;100849.75;;;1.18;83.50
84890;BME280;75153;52.222;5.160;2024-01-16T09:17:24;100842.38;;;1.15;83.29
84890;BME280;75153;52.222;5.160;2024-01-16T09:19:51;100832.78;;;1.22;83.56
84890;BME280;75153;52.222;5.160;2024-01-16T09:22:16;100840.97;;;1.12;82.66
84890;BME280;75153;52.222;5.160;2024-01-16T09:24:43;100842.75;;;1.25;82.26
84890;BME280;75153;52.222;5.160;2024-01-16T09:27:09;100844.75;;;1.23;82.18
84890;BME280;75153;52.222;5.160;2024-01-16T09:29:35;100853.78;;;1.01;82.10
84890;BME280;75153;52.222;5.160;2024-01-16T09:32:01;100850.97;;;1.09;82.81
84890;BME280;75153;52.222;5.160;2024-01-16T09:34:27;100854.72;;;1.26;82.72
84890;BME280;75153;52.222;5.160;2024-01-16T09:36:53;100850.75;;;1.30;82.75
84890;BME280;75153;52.222;5.160;2024-01-16T09:39:18;100844.53;;;1.31;82.45
84890;BME280;75153;52.222;5.160;2024-01-16T09:41:47;100846.34;;;1.31;81.39
84890;BME280;75153;52.222;5.160;2024-01-16T09:44:12;100848.47;;;1.54;81.65
84890;BME280;75153;52.222;5.160;2024-01-16T09:46:38;100848.09;;;1.44;81.73
84890;BME280;75153;52.222;5.160;2024-01-16T09:49:05;100835.06;;;1.57;81.39
84890;BME280;75153;52.222;5.160;2024-01-16T09:51:30;100839.25;;;1.58;80.99
84890;BME280;75153;52.222;5.160;2024-01-16T09:53:56;100835.44;;;1.67;80.80
84890;BME280;75153;52.222;5.160;2024-01-16T09:56:22;100833.19;;;1.71;81.17
84890;BME280;75153;52.222;5.160;2024-01-16T09:58:58;100832.22;;;1.65;79.73
84890;BME280;75153;52.222;5.160;2024-01-16T10:01:29;100831.75;;;1.82;80.24
84890;BME280;75153;52.222;5.160;2024-01-16T10:03:55;100830.41;;;1.66;79.49
84890;BME280;75153;52.222;5.160;2024-01-16T10:06:22;100829.22;;;1.68;79.86
84890;BME280;75153;52.222;5.160;2024-01-16T10:08:49;100819.38;;;1.77;79.12
84890;BME280;75153;52.222;5.160;2024-01-16T10:11:15;100819.56;;;1.82;79.75
84890;BME280;75153;52.222;5.160;2024-01-16T10:13:40;100817.44;;;1.97;79.66
84890;BME280;75153;52.222;5.160;2024-01-16T10:16:06;100821.97;;;2.09;80.04
84890;BME280;75153;52.222;5.160;2024-01-16T10:18:32;100820.94;;;2.16;78.28
84890;BME280;75153;52.222;5.160;2024-01-16T10:20:59;100807.63;;;2.31;78.48
84890;BME280;75153;52.222;5.160;2024-01-16T10:23:29;100810.34;;;2.43;78.85
84890;BME280;75153;52.222;5.160;2024-01-16T10:28:30;100804.41;;;2.61;77.36
84890;BME280;75153;52.222;5.160;2024-01-16T10:31:04;100801.13;;;2.65;76.97
84890;BME280;75153;52.222;5.160;2024-01-16T10:33:30;100800.06;;;2.73;76.10
84890;BME280;75153;52.222;5.160;2024-01-16T10:36:15;100809.09;;;2.70;76.49
84890;BME280;75153;52.222;5.160;2024-01-16T10:38:46;100801.41;;;2.57;76.21
84890;BME280;75153;52.222;5.160;2024-01-16T10:41:13;100803.47;;;2.74;76.71
84890;BME280;75153;52.222;5.160;2024-01-16T10:43:39;100808.94;;;2.65;76.68
84890;BME280;75153;52.222;5.160;2024-01-16T10:46:12;100800.72;;;2.68;76.91
84890;BME280;75153;52.222;5.160;2024-01-16T10:48:39;100813.28;;;2.72;75.28
84890;BME280;75153;52.222;5.160;2024-01-16T10:51:18;100812.47;;;2.78;75.93
84890;BME280;75153;52.222;5.160;2024-01-16T10:53:45;100812.81;;;2.81;75.48
84890;BME280;75153;52.222;5.160;2024-01-16T10:56:12;100803.31;;;2.68;75.39
84890;BME280;75153;52.222;5.160;2024-01-16T10:58:42;100804.59;;;2.59;74.71
84890;BME280;75153;52.222;5.160;2024-01-16T11:01:14;100797.22;;;2.56;75.99
84890;BME280;75153;52.222;5.160;2024-01-16T11:03:48;100803.88;;;2.52;76.83
84890;BME280;75153;52.222;5.160;2024-01-16T11:06:16;100799.66;;;2.51;75.58
84890;BME280;75153;52.222;5.160;2024-01-16T11:08:42;100787.34;;;2.40;75.58
84890;BME280;75153;52.222;5.160;2024-01-16T11:11:08;100785.97;;;2.37;75.45
84890;BME280;75153;52.222;5.160;2024-01-16T11:13:34;100791.81;;;2.33;76.01
84890;BME280;75153;52.222;5.160;2024-01-16T11:16:01;100781.41;;;2.33;75.05
84890;BME280;75153;52.222;5.160;2024-01-16T11:18:30;100782.31;;;2.45;75.14
84890;BME280;75153;52.222;5.160;2024-01-16T11:20:56;100776.25;;;2.26;74.84
84890;BME280;75153;52.222;5.160;2024-01-16T11:23:23;100772.00;;;2.32;72.67
84890;BME280;75153;52.222;5.160;2024-01-16T11:25:49;100765.81;;;2.51;74.39
84890;BME280;75153;52.222;5.160;2024-01-16T11:28:14;100769.66;;;2.48;73.98
84890;BME280;75153;52.222;5.160;2024-01-16T11:30:41;100760.63;;;2.51;73.69
84890;BME280;75153;52.222;5.160;2024-01-16T11:36:00;100755.53;;;2.81;72.14
84890;BME280;75153;52.222;5.160;2024-01-16T11:38:26;100755.31;;;2.83;73.28
84890;BME280;75153;52.222;5.160;2024-01-16T11:40:53;100750.69;;;2.85;72.66
84890;BME280;75153;52.222;5.160;2024-01-16T11:46:04;100750.19;;;2.95;72.20
84890;BME280;75153;52.222;5.160;2024-01-16T11:48:30;100757.13;;;3.01;73.75
84890;BME280;75153;52.222;5.160;2024-01-16T11:50:55;100747.66;;;3.06;70.76
84890;BME280;75153;52.222;5.160;2024-01-16T12:01:43;100742.72;;;2.98;70.33
84890;BME280;75153;52.222;5.160;2024-01-16T12:04:09;100738.59;;;3.09;71.54
84890;BME280;75153;52.222;5.160;2024-01-16T12:06:35;100732.38;;;3.10;70.84
84890;BME280;75153;52.222;5.160;2024-01-16T12:09:14;100737.72;;;3.15;71.41
84890;BME280;75153;52.222;5.160;2024-01-16T12:11:40;100738.50;;;2.60;71.02
84890;BME280;75153;52.222;5.160;2024-01-16T12:14:08;100745.72;;;2.83;71.37
84890;BME280;75153;52.222;5.160;2024-01-16T12:16:33;100736.13;;;2.77;70.79
84890;BME280;75153;52.222;5.160;2024-01-16T12:19:09;100738.34;;;2.80;71.16
84890;BME280;75153;52.222;5.160;2024-01-16T12:21:41;100735.41;;;2.88;72.20
84890;BME280;75153;52.222;5.160;2024-01-16T12:24:07;100733.03;;;2.87;70.46
84890;BME280;75153;52.222;5.160;2024-01-16T12:26:33;100737.50;;;2.80;70.66
84890;BME280;75153;52.222;5.160;2024-01-16T12:28:58;100733.63;;;2.89;70.48
84890;BME280;75153;52.222;5.160;2024-01-16T12:31:25;100736.28;;;2.82;70.83
84890;BME280;75153;52.222;5.160;2024-01-16T12:33:51;100727.69;;;2.82;71.00
84890;BME280;75153;52.222;5.160;2024-01-16T12:36:17;100730.13;;;2.77;69.58
84890;BME280;75153;52.222;5.160;2024-01-16T12:38:43;100722.84;;;3.04;70.72
84890;BME280;75153;52.222;5.160;2024-01-16T12:41:10;100710.88;;;3.14;70.64
84890;BME280;75153;52.222;5.160;2024-01-16T12:43:36;100717.09;;;3.13;71.34
84890;BME280;75153;52.222;5.160;2024-01-16T12:46:02;100716.00;;;3.21;72.03
84890;BME280;75153;52.222;5.160;2024-01-16T12:48:28;100717.63;;;3.34;70.82
84890;BME280;75153;52.222;5.160;2024-01-16T12:51:01;100716.41;;;3.36;71.10
84890;BME280;75153;52.222;5.160;2024-01-16T12:53:32;100711.31;;;3.42;71.14
84890;BME280;75153;52.222;5.160;2024-01-16T12:55:59;100702.09;;;3.57;71.10
84890;BME280;75153;52.222;5.160;2024-01-16T12:58:32;100714.28;;;3.45;71.05
84890;BME280;75153;52.222;5.160;2024-01-16T13:01:26;100711.13;;;3.43;70.95
84890;BME280;75153;52.222;5.160;2024-01-16T13:03:52;100712.84;;;3.49;70.91
84890;BME280;75153;52.222;5.160;2024-01-16T13:06:19;100707.97;;;3.53;68.94
84890;BME280;75153;52.222;5.160;2024-01-16T13:08:48;100709.06;;;3.45;65.64
84890;BME280;75153;52.222;5.160;2024-01-16T13:11:14;100697.56;;;3.65;66.86